sensor_id;sensor_type;location;lat;lon;timestamp;P1;P4;P2;P0;N10;N4;N25;N1;N05;TS
65994;SPS30;52764;51.036;5.852;2023-05-16T00:00:07;1.46;1.45;1.40;1.26;10.10;10.09;10.08;9.98;8.69;0.62
65994;SPS30;52764;51.036;5.852;2023-05-16T00:02:37;1.55;1.54;1.48;1.33;10.66;10.66;10.64;10.54;9.17;0.61
65994;SPS30;52764;51.036;5.852;2023-05-16T00:05:04;1.46;1.45;1.40;1.26;10.07;10.06;10.05;9.96;8.67;0.61
65994;SPS30;52764;51.036;5.852;2023-05-16T00:07:32;1.58;1.57;1.52;1.37;10.98;10.97;10.95;10.86;9.45;0.60
65994;SPS30;52764;51.036;5.852;2023-05-16T00:09:59;1.65;1.64;1.55;1.37;10.94;10.93;10.91;10.77;9.33;0.62
65994;SPS30;52764;51.036;5.852;2023-05-16T00:12:25;1.79;1.77;1.66;1.45;11.60;11.59;11.56;11.39;9.84;0.64
65994;SPS30;52764;51.036;5.852;2023-05-16T00:14:52;1.86;1.84;1.73;1.50;12.01;12.00;11.97;11.80;10.19;0.65
65994;SPS30;52764;51.036;5.852;2023-05-16T00:17:18;1.99;1.97;1.84;1.60;12.79;12.78;12.74;12.55;10.83;0.66
65994;SPS30;52764;51.036;5.852;2023-05-16T00:19:45;2.02;1.99;1.82;1.53;12.28;12.27;12.23;11.99;10.27;0.68
65994;SPS30;52764;51.036;5.852;2023-05-16T00:22:14;2.02;1.99;1.83;1.55;12.40;12.39;12.35;12.12;10.40;0.69
65994;SPS30;52764;51.036;5.852;2023-05-16T00:24:40;2.08;2.05;1.90;1.62;12.96;12.95;12.91;12.69;10.91;0.69
65994;SPS30;52764;51.036;5.852;2023-05-16T00:27:06;2.16;2.13;1.98;1.70;13.64;13.63;13.59;13.37;11.51;0.68
65994;SPS30;52764;51.036;5.852;2023-05-16T00:29:35;1.92;1.90;1.78;1.55;12.37;12.36;12.33;12.15;10.49;0.67
65994;SPS30;52764;51.036;5.852;2023-05-16T00:32:01;2.02;2.00;1.87;1.63;13.03;13.02;12.99;12.80;11.05;0.68
65994;SPS30;52764;51.036;5.852;2023-05-16T00:34:26;2.02;1.99;1.85;1.58;12.61;12.60;12.56;12.35;10.61;0.69
65994;SPS30;52764;51.036;5.852;2023-05-16T00:36:52;2.27;2.23;2.04;1.69;13.57;13.55;13.50;13.22;11.29;0.71
65994;SPS30;52764;51.036;5.852;2023-05-16T00:39:18;2.30;2.26;2.06;1.72;13.80;13.79;13.73;13.45;11.51;0.70
65994;SPS30;52764;51.036;5.852;2023-05-16T00:41:44;2.49;2.45;2.22;1.83;14.65;14.64;14.57;14.25;12.16;0.71
65994;SPS30;52764;51.036;5.852;2023-05-16T00:44:10;2.43;2.39;2.18;1.82;14.56;14.54;14.48;14.19;12.13;0.69
65994;SPS30;52764;51.036;5.852;2023-05-16T00:46:36;2.50;2.46;2.26;1.91;15.28;15.27;15.21;14.92;12.79;0.68
65994;SPS30;52764;51.036;5.852;2023-05-16T00:49:02;2.30;2.27;2.12;1.82;14.61;14.60;14.55;14.32;12.34;0.67
65994;SPS30;52764;51.036;5.852;2023-05-16T00:51:29;2.29;2.26;2.10;1.80;14.40;14.38;14.34;14.10;12.14;0.68
65994;SPS30;52764;51.036;5.852;2023-05-16T00:53:55;2.48;2.44;2.25;1.89;15.17;15.15;15.10;14.81;12.70;0.69
65994;SPS30;52764;51.036;5.852;2023-05-16T00:56:21;2.40;2.36;2.15;1.80;14.38;14.37;14.31;14.02;11.99;0.69
65994;SPS30;52764;51.036;5.852;2023-05-16T00:58:47;2.55;2.50;2.28;1.89;15.12;15.10;15.04;14.72;12.57;0.70
65994;SPS30;52764;51.036;5.852;2023-05-16T01:01:14;2.97;2.92;2.65;2.20;17.61;17.60;17.53;17.15;14.65;0.70
65994;SPS30;52764;51.036;5.852;2023-05-16T01:03:41;2.58;2.53;2.29;1.88;15.05;15.04;14.97;14.63;12.47;0.69
65994;SPS30;52764;51.036;5.852;2023-05-16T01:06:11;2.74;2.69;2.43;1.99;15.92;15.90;15.83;15.46;13.16;0.70
65994;SPS30;52764;51.036;5.852;2023-05-16T01:08:37;2.84;2.78;2.48;2.00;16.03;16.01;15.93;15.52;13.17;0.71
65994;SPS30;52764;51.036;5.852;2023-05-16T01:22:02;2.67;2.63;2.43;2.06;16.46;16.44;16.39;16.09;13.81;0.67
65994;SPS30;52764;51.036;5.852;2023-05-16T01:27:25;2.69;2.64;2.38;1.95;15.62;15.60;15.53;15.17;12.92;0.71
65994;SPS30;52764;51.036;5.852;2023-05-16T01:29:57;2.58;2.54;2.31;1.91;15.32;15.30;15.24;14.91;12.73;0.70
65994;SPS30;52764;51.036;5.852;2023-05-16T01:32:23;2.62;2.57;2.34;1.94;15.52;15.51;15.44;15.11;12.90;0.69
65994;SPS30;52764;51.036;5.852;2023-05-16T01:34:49;2.89;2.83;2.56;2.10;16.80;16.79;16.71;16.32;13.91;0.71
65994;SPS30;52764;51.036;5.852;2023-05-16T01:37:18;2.61;2.56;2.31;1.89;15.17;15.15;15.08;14.74;12.55;0.71
65994;SPS30;52764;51.036;5.852;2023-05-16T01:39:58;2.79;2.74;2.49;2.05;16.46;16.45;16.38;16.02;13.67;0.70
65994;SPS30;52764;51.036;5.852;2023-05-16T01:42:33;2.65;2.59;2.32;1.87;15.01;14.99;14.92;14.54;12.34;0.71
65994;SPS30;52764;51.036;5.852;2023-05-16T01:45:08;2.64;2.59;2.32;1.87;15.02;15.00;14.93;14.55;12.35;0.70
65994;SPS30;52764;51.036;5.852;2023-05-16T01:47:40;2.73;2.67;2.35;1.85;14.86;14.84;14.75;14.32;12.07;0.71
65994;SPS30;52764;51.036;5.852;2023-05-16T01:50:17;3.21;3.13;2.72;2.11;16.91;16.89;16.79;16.24;13.63;0.71
65994;SPS30;52764;51.036;5.852;2023-05-16T01:52:49;2.66;2.60;2.33;1.88;15.06;15.04;14.97;14.58;12.37;0.68
65994;SPS30;52764;51.036;5.852;2023-05-16T01:55:28;3.08;3.01;2.69;2.16;17.34;17.32;17.23;16.78;14.23;0.70
65994;SPS30;52764;51.036;5.852;2023-05-16T01:58:10;2.88;2.82;2.50;2.00;16.06;16.05;15.96;15.53;13.15;0.70
65994;SPS30;52764;51.036;5.852;2023-05-16T02:00:39;3.32;3.24;2.82;2.19;17.57;17.55;17.44;16.88;14.18;0.73
65994;SPS30;52764;51.036;5.852;2023-05-16T02:03:05;3.16;3.08;2.65;2.00;16.06;16.04;15.92;15.35;12.80;0.74
65994;SPS30;52764;51.036;5.852;2023-05-16T02:05:31;3.64;3.53;2.97;2.15;17.32;17.29;17.14;16.41;13.52;0.76
65994;SPS30;52764;51.036;5.852;2023-05-16T02:07:57;3.58;3.47;2.92;2.12;17.08;17.05;16.91;16.19;13.35;0.76
65994;SPS30;52764;51.036;5.852;2023-05-16T02:10:24;3.18;3.10;2.66;2.00;16.08;16.06;15.94;15.36;12.80;0.74
65994;SPS30;52764;51.036;5.852;2023-05-16T02:12:51;2.93;2.86;2.51;1.97;15.84;15.82;15.73;15.26;12.86;0.70
65994;SPS30;52764;51.036;5.852;2023-05-16T02:15:17;2.84;2.78;2.47;1.97;15.82;15.80;15.72;15.29;12.94;0.69
65994;SPS30;52764;51.036;5.852;2023-05-16T02:17:43;3.10;3.03;2.65;2.06;16.51;16.49;16.39;15.88;13.34;0.72
65994;SPS30;52764;51.036;5.852;2023-05-16T02:20:09;2.91;2.83;2.43;1.82;14.61;14.59;14.49;13.94;11.60;0.75
65994;SPS30;52764;51.036;5.852;2023-05-16T02:22:36;3.09;3.01;2.59;1.97;15.81;15.79;15.68;15.12;12.63;0.74
65994;SPS30;52764;51.036;5.852;2023-05-16T02:25:06;3.05;2.96;2.54;1.91;15.33;15.31;15.20;14.64;12.19;0.75
65994;SPS30;52764;51.036;5.852;2023-05-16T02:27:33;3.33;3.23;2.72;1.98;15.94;15.92;15.79;15.12;12.48;0.76
65994;SPS30;52764;51.036;5.852;2023-05-16T02:29:59;3.35;3.25;2.73;1.97;15.86;15.83;15.69;15.01;12.36;0.75
65994;SPS30;52764;51.036;5.852;2023-05-16T02:32:25;3.29;3.21;2.80;2.17;17.38;17.36;17.25;16.69;14.01;0.71
65994;SPS30;52764;51.036;5.852;2023-05-16T02:34:50;2.82;2.75;2.40;1.86;14.93;14.92;14.82;14.35;12.05;0.71
65994;SPS30;52764;51.036;5.852;2023-05-16T02:37:17;2.97;2.90;2.54;1.98;15.89;15.87;15.77;15.28;12.85;0.69
65994;SPS30;52764;51.036;5.852;2023-05-16T02:39:42;3.00;2.93;2.59;2.04;16.39;16.37;16.28;15.81;13.34;0.68
65994;SPS30;52764;51.036;5.852;2023-05-16T02:42:08;3.06;2.99;2.65;2.12;16.97;16.95;16.86;16.40;13.87;0.70
65994;SPS30;52764;51.036;5.852;2023-05-16T02:44:34;2.97;2.91;2.62;2.14;17.16;17.15;17.07;16.66;14.18;0.68
65994;SPS30;52764;51.036;5.852;2023-05-16T02:47:00;2.80;2.75;2.49;2.06;16.50;16.49;16.42;16.06;13.70;0.67
65994;SPS30;52764;51.036;5.852;2023-05-16T02:49:25;2.66;2.62;2.42;2.05;16.43;16.42;16.36;16.07;13.80;0.66
65994;SPS30;52764;51.036;5.852;2023-05-16T02:51:51;3.27;3.21;2.95;2.49;19.90;19.89;19.82;19.44;16.66;0.67
65994;SPS30;52764;51.036;5.852;2023-05-16T02:54:17;3.48;3.42;3.14;2.64;21.11;21.10;21.02;20.61;17.65;0.68
65994;SPS30;52764;51.036;5.852;2023-05-16T02:56:42;3.56;3.49;3.16;2.59;20.76;20.74;20.65;20.17;17.19;0.70
65994;SPS30;52764;51.036;5.852;2023-05-16T02:59:09;3.41;3.34;2.99;2.42;19.38;19.36;19.27;18.78;15.95;0.71
65994;SPS30;52764;51.036;5.852;2023-05-16T03:01:35;3.47;3.40;3.05;2.48;19.86;19.85;19.75;19.26;16.37;0.70
65994;SPS30;52764;51.036;5.852;2023-05-16T03:04:03;3.59;3.51;3.12;2.49;19.95;19.92;19.82;19.27;16.30;0.70
65994;SPS30;52764;51.036;5.852;2023-05-16T03:06:29;3.27;3.19;2.79;2.16;17.36;17.34;17.23;16.68;14.01;0.72
65994;SPS30;52764;51.036;5.852;2023-05-16T03:08:54;3.40;3.31;2.89;2.23;17.93;17.91;17.79;17.22;14.45;0.72
65994;SPS30;52764;51.036;5.852;2023-05-16T03:11:20;3.34;3.26;2.83;2.18;17.50;17.48;17.37;16.79;14.08;0.72
65994;SPS30;52764;51.036;5.852;2023-05-16T03:13:48;3.24;3.16;2.73;2.08;16.72;16.70;16.59;16.01;13.39;0.73
65994;SPS30;52764;51.036;5.852;2023-05-16T03:16:14;3.39;3.29;2.79;2.05;16.50;16.48;16.35;15.69;12.99;0.75
65994;SPS30;52764;51.036;5.852;2023-05-16T03:18:41;3.14;3.05;2.59;1.91;15.38;15.36;15.24;14.63;12.13;0.75
65994;SPS30;52764;51.036;5.852;2023-05-16T03:21:07;3.12;3.02;2.55;1.85;14.90;14.87;14.75;14.12;11.65;0.76
65994;SPS30;52764;51.036;5.852;2023-05-16T03:23:33;3.28;3.18;2.64;1.88;15.12;15.09;14.95;14.25;11.68;0.78
65994;SPS30;52764;51.036;5.852;2023-05-16T03:25:58;3.74;3.61;3.00;2.13;17.10;17.07;16.91;16.11;13.18;0.77
65994;SPS30;52764;51.036;5.852;2023-05-16T03:28:25;3.34;3.24;2.73;1.98;15.96;15.93;15.80;15.13;12.48;0.74
65994;SPS30;52764;51.036;5.852;2023-05-16T03:30:53;3.18;3.08;2.60;1.89;15.18;15.16;15.03;14.39;11.87;0.74
65994;SPS30;52764;51.036;5.852;2023-05-16T03:33:19;3.49;3.39;2.89;2.15;17.31;17.28;17.15;16.49;13.70;0.71
65994;SPS30;52764;51.036;5.852;2023-05-16T03:35:45;4.00;3.87;3.26;2.36;19.00;18.97;18.81;18.00;14.84;0.74
65994;SPS30;52764;51.036;5.852;2023-05-16T03:38:11;4.00;3.87;3.24;2.32;18.65;18.62;18.45;17.62;14.47;0.75
65994;SPS30;52764;51.036;5.852;2023-05-16T03:40:37;3.85;3.75;3.21;2.42;19.44;19.41;19.27;18.56;15.46;0.71
65994;SPS30;52764;51.036;5.852;2023-05-16T03:43:03;3.57;3.48;3.06;2.40;19.26;19.24;19.13;18.55;15.63;0.69
65994;SPS30;52764;51.036;5.852;2023-05-16T03:45:29;3.50;3.42;3.00;2.35;18.87;18.85;18.74;18.17;15.30;0.70
65994;SPS30;52764;51.036;5.852;2023-05-16T03:47:55;3.82;3.71;3.17;2.37;19.03;19.01;18.86;18.15;15.08;0.71
65994;SPS30;52764;51.036;5.852;2023-05-16T03:50:22;4.02;3.89;3.26;2.35;18.89;18.86;18.69;17.86;14.69;0.74
65994;SPS30;52764;51.036;5.852;2023-05-16T03:52:47;4.15;4.01;3.34;2.36;19.01;18.98;18.80;17.91;14.66;0.76
65994;SPS30;52764;51.036;5.852;2023-05-16T03:55:13;4.06;3.94;3.32;2.41;19.40;19.37;19.21;18.39;15.17;0.74
65994;SPS30;52764;51.036;5.852;2023-05-16T03:57:39;3.73;3.62;3.08;2.29;18.38;18.36;18.21;17.50;14.52;0.71
65994;SPS30;52764;51.036;5.852;2023-05-16T04:00:07;4.38;4.24;3.55;2.56;20.57;20.54;20.36;19.45;16.00;0.72
65994;SPS30;52764;51.036;5.852;2023-05-16T04:02:39;3.88;3.76;3.14;2.24;18.02;17.99;17.83;17.01;13.96;0.76
65994;SPS30;52764;51.036;5.852;2023-05-16T04:05:06;3.74;3.62;3.02;2.15;17.27;17.24;17.08;16.29;13.35;0.77
65994;SPS30;52764;51.036;5.852;2023-05-16T04:07:33;3.56;3.45;2.88;2.06;16.57;16.54;16.39;15.65;12.84;0.77
65994;SPS30;52764;51.036;5.852;2023-05-16T04:09:59;3.82;3.70;3.10;2.22;17.86;17.83;17.67;16.87;13.86;0.76
65994;SPS30;52764;51.036;5.852;2023-05-16T04:12:25;3.65;3.54;2.95;2.10;16.92;16.89;16.74;15.97;13.10;0.77
65994;SPS30;52764;51.036;5.852;2023-05-16T04:14:50;3.49;3.38;2.83;2.04;16.42;16.40;16.25;15.53;12.78;0.79
65994;SPS30;52764;51.036;5.852;2023-05-16T04:17:16;3.76;3.62;2.96;2.03;16.31;16.28;16.11;15.25;12.34;0.81
65994;SPS30;52764;51.036;5.852;2023-05-16T04:19:41;3.58;3.45;2.81;1.89;15.27;15.24;15.07;14.23;11.47;0.81
65994;SPS30;52764;51.036;5.852;2023-05-16T04:22:07;3.96;3.82;3.15;2.19;17.62;17.59;17.41;16.53;13.45;0.79
65994;SPS30;52764;51.036;5.852;2023-05-16T04:24:33;3.89;3.75;3.06;2.08;16.77;16.74;16.56;15.66;12.65;0.78
65994;SPS30;52764;51.036;5.852;2023-05-16T04:26:59;4.01;3.86;3.13;2.11;17.03;16.99;16.80;15.86;12.77;0.79
65994;SPS30;52764;51.036;5.852;2023-05-16T04:29:25;3.33;3.22;2.67;1.88;15.17;15.14;15.00;14.28;11.67;0.76
65994;SPS30;52764;51.036;5.852;2023-05-16T04:31:50;3.50;3.39;2.84;2.04;16.42;16.39;16.25;15.52;12.76;0.76
65994;SPS30;52764;51.036;5.852;2023-05-16T04:34:16;3.61;3.49;2.88;2.02;16.26;16.23;16.07;15.28;12.47;0.78
65994;SPS30;52764;51.036;5.852;2023-05-16T04:36:42;3.11;3.01;2.51;1.79;14.39;14.37;14.24;13.58;11.14;0.78
65994;SPS30;52764;51.036;5.852;2023-05-16T04:39:07;3.36;3.25;2.69;1.89;15.24;15.21;15.07;14.34;11.71;0.79
65994;SPS30;52764;51.036;5.852;2023-05-16T04:41:33;3.36;3.24;2.69;1.89;15.22;15.19;15.04;14.31;11.69;0.78
65994;SPS30;52764;51.036;5.852;2023-05-16T04:44:00;3.57;3.45;2.87;2.03;16.34;16.31;16.16;15.40;12.60;0.77
65994;SPS30;52764;51.036;5.852;2023-05-16T04:46:28;3.63;3.51;2.93;2.09;16.83;16.80;16.65;15.89;13.04;0.79
65994;SPS30;52764;51.036;5.852;2023-05-16T04:48:55;3.98;3.85;3.20;2.26;18.21;18.18;18.01;17.15;14.03;0.79
65994;SPS30;52764;51.036;5.852;2023-05-16T04:51:21;3.24;3.15;2.66;1.96;15.72;15.70;15.57;14.93;12.35;0.76
65994;SPS30;52764;51.036;5.852;2023-05-16T04:53:47;3.13;3.04;2.57;1.89;15.17;15.14;15.02;14.40;11.91;0.77
65994;SPS30;52764;51.036;5.852;2023-05-16T04:56:13;3.21;3.12;2.63;1.91;15.37;15.34;15.21;14.57;12.02;0.76
65994;SPS30;52764;51.036;5.852;2023-05-16T04:58:38;3.71;3.57;2.91;1.97;15.89;15.86;15.68;14.82;11.96;0.80
65994;SPS30;52764;51.036;5.852;2023-05-16T05:01:04;3.91;3.77;3.05;2.05;16.53;16.50;16.32;15.38;12.38;0.80
65994;SPS30;52764;51.036;5.852;2023-05-16T05:03:30;3.35;3.24;2.68;1.88;15.13;15.11;14.96;14.23;11.61;0.78
65994;SPS30;52764;51.036;5.852;2023-05-16T05:05:56;3.59;3.47;2.83;1.94;15.59;15.56;15.39;14.57;11.79;0.79
65994;SPS30;52764;51.036;5.852;2023-05-16T05:08:22;3.78;3.64;2.94;1.96;15.79;15.76;15.58;14.67;11.77;0.81
65994;SPS30;52764;51.036;5.852;2023-05-16T05:10:47;3.94;3.79;3.05;2.01;16.23;16.19;16.00;15.04;12.03;0.82
65994;SPS30;52764;51.036;5.852;2023-05-16T05:13:13;4.15;3.99;3.17;2.03;16.42;16.38;16.17;15.11;11.97;0.83
65994;SPS30;52764;51.036;5.852;2023-05-16T05:15:39;3.85;3.71;3.01;2.03;16.35;16.32;16.14;15.23;12.27;0.79
65994;SPS30;52764;51.036;5.852;2023-05-16T05:18:04;3.50;3.38;2.75;1.88;15.11;15.08;14.92;14.10;11.40;0.77
65994;SPS30;52764;51.036;5.852;2023-05-16T05:20:30;3.35;3.24;2.65;1.82;14.64;14.61;14.46;13.69;11.10;0.77
65994;SPS30;52764;51.036;5.852;2023-05-16T05:22:56;3.57;3.45;2.82;1.93;15.55;15.52;15.36;14.54;11.78;0.80
65994;SPS30;52764;51.036;5.852;2023-05-16T05:25:21;3.65;3.52;2.84;1.89;15.23;15.20;15.02;14.14;11.34;0.82
65994;SPS30;52764;51.036;5.852;2023-05-16T05:27:47;3.87;3.73;3.03;2.05;16.49;16.46;16.28;15.37;12.39;0.80
65994;SPS30;52764;51.036;5.852;2023-05-16T05:30:13;3.72;3.59;2.94;2.02;16.30;16.27;16.10;15.26;12.37;0.79
65994;SPS30;52764;51.036;5.852;2023-05-16T05:32:39;4.07;3.94;3.28;2.34;18.85;18.82;18.65;17.79;14.59;0.77
65994;SPS30;52764;51.036;5.852;2023-05-16T05:35:05;3.13;3.05;2.65;2.03;16.33;16.31;16.20;15.66;13.12;0.72
65994;SPS30;52764;51.036;5.852;2023-05-16T05:37:31;2.88;2.80;2.43;1.86;14.94;14.92;14.82;14.32;11.99;0.72
65994;SPS30;52764;51.036;5.852;2023-05-16T05:39:56;2.99;2.92;2.52;1.93;15.49;15.47;15.37;14.84;12.42;0.73
65994;SPS30;52764;51.036;5.852;2023-05-16T05:42:22;3.00;2.92;2.52;1.92;15.41;15.39;15.28;14.75;12.32;0.70
65994;SPS30;52764;51.036;5.852;2023-05-16T05:44:48;3.19;3.09;2.64;1.96;15.75;15.73;15.61;15.00;12.45;0.72
65994;SPS30;52764;51.036;5.852;2023-05-16T05:47:13;3.63;3.51;2.92;2.07;16.68;16.66;16.50;15.73;12.89;0.75
65994;SPS30;52764;51.036;5.852;2023-05-16T05:49:40;3.29;3.18;2.66;1.91;15.38;15.35;15.22;14.53;11.94;0.74
65994;SPS30;52764;51.036;5.852;2023-05-16T05:52:05;3.61;3.49;2.90;2.05;16.51;16.48;16.33;15.55;12.73;0.75
65994;SPS30;52764;51.036;5.852;2023-05-16T05:54:32;3.46;3.34;2.77;1.96;15.76;15.73;15.58;14.84;12.13;0.75
65994;SPS30;52764;51.036;5.852;2023-05-16T05:56:58;3.17;3.07;2.56;1.83;14.74;14.71;14.58;13.91;11.42;0.75
65994;SPS30;52764;51.036;5.852;2023-05-16T05:59:23;3.11;3.02;2.55;1.87;15.00;14.98;14.86;14.24;11.76;0.75
65994;SPS30;52764;51.036;5.852;2023-05-16T06:01:50;3.38;3.28;2.78;2.05;16.47;16.44;16.31;15.65;12.96;0.74
65994;SPS30;52764;51.036;5.852;2023-05-16T06:04:19;3.23;3.14;2.68;1.99;16.02;15.99;15.87;15.26;12.68;0.74
65994;SPS30;52764;51.036;5.852;2023-05-16T06:06:45;3.46;3.35;2.80;2.00;16.11;16.08;15.94;15.21;12.49;0.77
65994;SPS30;52764;51.036;5.852;2023-05-16T06:09:11;3.66;3.53;2.91;2.02;16.28;16.25;16.09;15.27;12.42;0.77
65994;SPS30;52764;51.036;5.852;2023-05-16T06:11:38;3.40;3.29;2.71;1.90;15.26;15.23;15.08;14.33;11.68;0.77
65994;SPS30;52764;51.036;5.852;2023-05-16T06:14:04;3.49;3.37;2.79;1.97;15.84;15.81;15.66;14.90;12.17;0.76
65994;SPS30;52764;51.036;5.852;2023-05-16T06:16:29;3.77;3.65;3.00;2.09;16.83;16.80;16.63;15.79;12.85;0.78
65994;SPS30;52764;51.036;5.852;2023-05-16T06:18:55;2.92;2.83;2.39;1.73;13.91;13.89;13.77;13.18;10.86;0.75
65994;SPS30;52764;51.036;5.852;2023-05-16T06:21:21;2.89;2.80;2.38;1.75;14.06;14.04;13.93;13.37;11.07;0.74
65994;SPS30;52764;51.036;5.852;2023-05-16T06:23:46;2.92;2.83;2.40;1.76;14.13;14.11;14.00;13.42;11.10;0.75
65994;SPS30;52764;51.036;5.852;2023-05-16T06:26:12;3.16;3.06;2.57;1.86;14.96;14.94;14.81;14.16;11.67;0.75
65994;SPS30;52764;51.036;5.852;2023-05-16T06:28:38;3.40;3.29;2.76;2.00;16.06;16.03;15.89;15.20;12.51;0.76
65994;SPS30;52764;51.036;5.852;2023-05-16T06:31:05;3.04;2.96;2.52;1.88;15.08;15.06;14.95;14.37;11.94;0.73
65994;SPS30;52764;51.036;5.852;2023-05-16T06:33:30;3.48;3.38;2.86;2.09;16.84;16.81;16.67;15.98;13.22;0.73
65994;SPS30;52764;51.036;5.852;2023-05-16T06:35:56;2.99;2.90;2.48;1.85;14.86;14.84;14.73;14.16;11.77;0.73
65994;SPS30;52764;51.036;5.852;2023-05-16T06:38:22;2.98;2.90;2.51;1.91;15.31;15.29;15.19;14.65;12.25;0.72
65994;SPS30;52764;51.036;5.852;2023-05-16T06:40:47;2.98;2.91;2.53;1.95;15.66;15.64;15.54;15.03;12.61;0.71
65994;SPS30;52764;51.036;5.852;2023-05-16T06:43:13;2.88;2.81;2.46;1.92;15.44;15.42;15.33;14.86;12.50;0.72
65994;SPS30;52764;51.036;5.852;2023-05-16T06:45:39;2.91;2.84;2.47;1.91;15.36;15.34;15.25;14.76;12.39;0.75
65994;SPS30;52764;51.036;5.852;2023-05-16T06:48:05;3.40;3.30;2.81;2.09;16.79;16.77;16.64;15.99;13.27;0.76
65994;SPS30;52764;51.036;5.852;2023-05-16T06:50:32;3.05;2.96;2.54;1.91;15.37;15.35;15.24;14.68;12.23;0.74
65994;SPS30;52764;51.036;5.852;2023-05-16T06:52:59;3.18;3.09;2.62;1.94;15.58;15.56;15.44;14.82;12.29;0.75
65994;SPS30;52764;51.036;5.852;2023-05-16T06:55:25;2.79;2.70;2.27;1.65;13.24;13.22;13.11;12.54;10.34;0.74
65994;SPS30;52764;51.036;5.852;2023-05-16T06:57:51;2.82;2.74;2.34;1.74;13.98;13.96;13.85;13.32;11.06;0.73
65994;SPS30;52764;51.036;5.852;2023-05-16T07:00:17;2.85;2.77;2.39;1.82;14.62;14.60;14.50;13.99;11.69;0.73
65994;SPS30;52764;51.036;5.852;2023-05-16T07:02:43;2.73;2.66;2.34;1.83;14.65;14.63;14.54;14.10;11.86;0.69
65994;SPS30;52764;51.036;5.852;2023-05-16T07:05:08;2.81;2.74;2.39;1.86;14.90;14.88;14.79;14.31;12.02;0.68
65994;SPS30;52764;51.036;5.852;2023-05-16T07:07:34;2.74;2.67;2.35;1.84;14.78;14.76;14.67;14.23;11.99;0.66
65994;SPS30;52764;51.036;5.852;2023-05-16T07:10:01;2.53;2.47;2.20;1.76;14.13;14.12;14.05;13.67;11.58;0.68
65994;SPS30;52764;51.036;5.852;2023-05-16T07:12:27;2.37;2.33;2.12;1.75;14.04;14.03;13.97;13.67;11.67;0.66
65994;SPS30;52764;51.036;5.852;2023-05-16T07:14:52;2.28;2.24;2.04;1.69;13.54;13.53;13.47;13.19;11.27;0.66
65994;SPS30;52764;51.036;5.852;2023-05-16T07:17:18;2.53;2.48;2.27;1.89;15.13;15.11;15.05;14.74;12.60;0.64
65994;SPS30;52764;51.036;5.852;2023-05-16T07:19:44;2.24;2.21;2.05;1.76;14.08;14.07;14.02;13.79;11.87;0.62
65994;SPS30;52764;51.036;5.852;2023-05-16T07:22:10;2.25;2.22;2.05;1.75;13.97;13.96;13.91;13.67;11.74;0.63
65994;SPS30;52764;51.036;5.852;2023-05-16T07:24:36;2.07;2.04;1.90;1.63;13.04;13.03;12.99;12.78;11.00;0.64
65994;SPS30;52764;51.036;5.852;2023-05-16T07:27:02;2.15;2.13;1.99;1.72;13.75;13.74;13.70;13.49;11.63;0.65
65994;SPS30;52764;51.036;5.852;2023-05-16T07:29:28;1.96;1.94;1.81;1.56;12.52;12.51;12.47;12.28;10.59;0.63
65994;SPS30;52764;51.036;5.852;2023-05-16T07:31:54;2.00;1.97;1.81;1.53;12.27;12.27;12.22;12.00;10.29;0.66
65994;SPS30;52764;51.036;5.852;2023-05-16T07:34:20;2.10;2.06;1.87;1.53;12.29;12.28;12.23;11.95;10.19;0.70
65994;SPS30;52764;51.036;5.852;2023-05-16T07:36:46;2.59;2.53;2.24;1.78;14.24;14.23;14.15;13.75;11.62;0.73
65994;SPS30;52764;51.036;5.852;2023-05-16T07:39:12;2.31;2.25;2.00;1.59;12.71;12.70;12.63;12.28;10.37;0.73
65994;SPS30;52764;51.036;5.852;2023-05-16T07:41:38;2.29;2.24;2.02;1.64;13.16;13.15;13.09;12.77;10.87;0.71
65994;SPS30;52764;51.036;5.852;2023-05-16T07:44:04;2.21;2.17;1.98;1.65;13.24;13.23;13.18;12.91;11.04;0.70
65994;SPS30;52764;51.036;5.852;2023-05-16T07:46:30;1.89;1.87;1.73;1.47;11.77;11.76;11.72;11.51;9.89;0.68
65994;SPS30;52764;51.036;5.852;2023-05-16T07:48:56;1.98;1.95;1.80;1.52;12.20;12.19;12.15;11.93;10.24;0.67
65994;SPS30;52764;51.036;5.852;2023-05-16T07:51:21;2.07;2.04;1.88;1.59;12.72;12.71;12.66;12.43;10.66;0.66
65994;SPS30;52764;51.036;5.852;2023-05-16T07:53:47;2.15;2.12;1.94;1.64;13.11;13.09;13.05;12.80;10.97;0.65
65994;SPS30;52764;51.036;5.852;2023-05-16T07:56:13;2.14;2.10;1.89;1.54;12.36;12.35;12.29;12.00;10.21;0.68
65994;SPS30;52764;51.036;5.852;2023-05-16T07:58:39;2.37;2.33;2.11;1.74;13.94;13.93;13.87;13.56;11.57;0.67
65994;SPS30;52764;51.036;5.852;2023-05-16T08:01:05;2.33;2.29;2.07;1.70;13.61;13.60;13.54;13.23;11.27;0.66
65994;SPS30;52764;51.036;5.852;2023-05-16T08:03:31;2.09;2.06;1.91;1.63;13.01;13.00;12.96;12.73;10.95;0.65
65994;SPS30;52764;51.036;5.852;2023-05-16T08:05:57;1.90;1.87;1.74;1.48;11.84;11.83;11.79;11.59;9.96;0.67
65994;SPS30;52764;51.036;5.852;2023-05-16T08:08:22;1.86;1.84;1.71;1.47;11.78;11.77;11.73;11.54;9.94;0.65
65994;SPS30;52764;51.036;5.852;2023-05-16T08:10:48;1.91;1.88;1.74;1.48;11.86;11.85;11.81;11.61;9.97;0.66
65994;SPS30;52764;51.036;5.852;2023-05-16T08:13:14;1.78;1.75;1.60;1.33;10.66;10.65;10.61;10.39;8.89;0.67
65994;SPS30;52764;51.036;5.852;2023-05-16T08:15:40;1.74;1.71;1.55;1.28;10.28;10.27;10.23;10.01;8.54;0.67
65994;SPS30;52764;51.036;5.852;2023-05-16T08:18:10;2.10;2.06;1.85;1.51;12.07;12.06;12.00;11.71;9.96;0.69
65994;SPS30;52764;51.036;5.852;2023-05-16T08:20:39;2.10;2.06;1.82;1.44;11.52;11.50;11.44;11.11;9.38;0.70
65994;SPS30;52764;51.036;5.852;2023-05-16T08:23:06;1.98;1.93;1.71;1.36;10.88;10.87;10.81;10.50;8.87;0.70
65994;SPS30;52764;51.036;5.852;2023-05-16T08:25:32;2.15;2.11;1.88;1.52;12.17;12.15;12.09;11.78;9.99;0.69
65994;SPS30;52764;51.036;5.852;2023-05-16T08:27:58;1.96;1.92;1.71;1.37;10.96;10.95;10.90;10.60;8.98;0.70
65994;SPS30;52764;51.036;5.852;2023-05-16T08:30:26;1.69;1.66;1.50;1.23;9.84;9.83;9.78;9.55;8.13;0.68
65994;SPS30;52764;51.036;5.852;2023-05-16T08:32:52;1.84;1.81;1.65;1.38;11.02;11.01;10.96;10.74;9.18;0.68
65994;SPS30;52764;51.036;5.852;2023-05-16T08:35:18;1.77;1.74;1.57;1.30;10.41;10.40;10.35;10.12;8.64;0.69
65994;SPS30;52764;51.036;5.852;2023-05-16T08:37:44;1.77;1.73;1.55;1.25;10.01;10.00;9.95;9.69;8.22;0.70
65994;SPS30;52764;51.036;5.852;2023-05-16T08:40:09;1.77;1.72;1.49;1.15;9.21;9.20;9.14;8.83;7.40;0.72
65994;SPS30;52764;51.036;5.852;2023-05-16T08:42:36;1.70;1.66;1.45;1.12;9.00;8.99;8.94;8.65;7.27;0.72
65994;SPS30;52764;51.036;5.852;2023-05-16T08:45:03;1.68;1.63;1.42;1.09;8.73;8.71;8.66;8.37;7.01;0.72
65994;SPS30;52764;51.036;5.852;2023-05-16T08:47:31;1.57;1.53;1.32;1.01;8.08;8.07;8.01;7.73;6.46;0.72
65994;SPS30;52764;51.036;5.852;2023-05-16T08:49:57;1.49;1.45;1.25;0.95;7.60;7.59;7.53;7.26;6.06;0.72
65994;SPS30;52764;51.036;5.852;2023-05-16T08:52:25;1.86;1.80;1.54;1.16;9.29;9.28;9.21;8.86;7.37;0.72
65994;SPS30;52764;51.036;5.852;2023-05-16T08:54:56;1.88;1.82;1.55;1.15;9.23;9.21;9.14;8.78;7.28;0.73
65994;SPS30;52764;51.036;5.852;2023-05-16T08:57:30;1.81;1.75;1.50;1.12;9.02;9.01;8.94;8.60;7.15;0.73
65994;SPS30;52764;51.036;5.852;2023-05-16T08:59:58;1.91;1.85;1.56;1.13;9.12;9.11;9.03;8.64;7.13;0.73
65994;SPS30;52764;51.036;5.852;2023-05-16T09:02:24;2.07;2.00;1.69;1.23;9.89;9.88;9.79;9.38;7.74;0.73
65994;SPS30;52764;51.036;5.852;2023-05-16T09:04:51;2.15;2.09;1.77;1.31;10.53;10.52;10.44;10.02;8.30;0.72
65994;SPS30;52764;51.036;5.852;2023-05-16T09:07:18;2.17;2.10;1.77;1.29;10.35;10.33;10.24;9.80;8.09;0.73
65994;SPS30;52764;51.036;5.852;2023-05-16T09:09:44;2.13;2.06;1.72;1.23;9.92;9.90;9.81;9.37;7.69;0.73
65994;SPS30;52764;51.036;5.852;2023-05-16T09:12:10;1.90;1.84;1.55;1.13;9.07;9.05;8.98;8.59;7.09;0.71
65994;SPS30;52764;51.036;5.852;2023-05-16T09:14:36;1.97;1.92;1.64;1.23;9.88;9.86;9.79;9.42;7.84;0.71
65994;SPS30;52764;51.036;5.852;2023-05-16T09:17:04;1.83;1.78;1.53;1.16;9.35;9.34;9.28;8.95;7.47;0.72
65994;SPS30;52764;51.036;5.852;2023-05-16T09:19:41;2.08;2.03;1.76;1.35;10.85;10.84;10.77;10.41;8.72;0.73
65994;SPS30;52764;51.036;5.852;2023-05-16T09:22:10;2.21;2.16;1.91;1.52;12.17;12.16;12.09;11.75;9.93;0.71
65994;SPS30;52764;51.036;5.852;2023-05-16T09:24:41;1.93;1.89;1.69;1.36;10.88;10.87;10.81;10.53;8.92;0.69